createdAt,value
2023-03-30T05:02:37.711Z,14.10
2023-03-30T05:07:42.775Z,14.00
2023-03-30T05:12:46.794Z,14.00
2023-03-30T05:17:52.099Z,14.00
2023-03-30T05:22:56.126Z,14.00
2023-03-30T05:28:00.415Z,14.00
2023-03-30T05:33:06.097Z,14.00
2023-03-30T05:38:10.173Z,14.10
2023-03-30T05:43:16.797Z,14.10
2023-03-30T05:48:22.635Z,14.10
2023-03-30T05:53:28.802Z,14.10
2023-03-30T05:58:33.106Z,14.00
2023-03-30T06:03:39.118Z,14.00
2023-03-30T06:08:44.137Z,14.00
2023-03-30T06:13:51.635Z,14.00
2023-03-30T06:18:56.887Z,14.00
2023-03-30T06:24:01.487Z,14.00
2023-03-30T06:29:05.533Z,14.00
2023-03-30T06:34:10.824Z,14.00
2023-03-30T06:39:14.477Z,14.00
2023-03-30T06:44:18.177Z,14.10
2023-03-30T06:49:24.254Z,14.10
2023-03-30T06:54:32.032Z,14.10
2023-03-30T06:59:36.205Z,14.10
2023-03-30T07:04:47.121Z,14.20
2023-03-30T07:09:53.140Z,14.20
2023-03-30T07:14:57.853Z,14.30
2023-03-30T07:20:06.298Z,14.40
2023-03-30T07:25:11.634Z,14.40
2023-03-30T07:30:21.783Z,14.40
2023-03-30T07:35:29.096Z,14.50
2023-03-30T07:40:33.801Z,14.50
2023-03-30T07:45:38.262Z,14.70
2023-03-30T07:50:43.621Z,14.70
2023-03-30T07:55:47.599Z,14.80
2023-03-30T08:00:51.768Z,14.80
2023-03-30T08:06:05.572Z,15.00
2023-03-30T08:11:11.412Z,15.10
2023-03-30T08:16:17.202Z,15.10
2023-03-30T08:21:22.405Z,15.20
2023-03-30T08:26:26.204Z,15.20
2023-03-30T08:31:32.753Z,15.40
2023-03-30T08:36:37.744Z,15.50
2023-03-30T08:41:54.672Z,15.70
2023-03-30T08:46:58.750Z,15.90
2023-03-30T08:52:05.813Z,16.20
2023-03-30T08:57:20.796Z,16.50
2023-03-30T09:02:30.021Z,16.60
2023-03-30T09:07:40.630Z,16.60
2023-03-30T09:12:48.607Z,16.60
2023-03-30T09:17:56.699Z,16.70
2023-03-30T09:23:03.707Z,16.80
2023-03-30T09:28:13.884Z,17.00
2023-03-30T09:33:28.366Z,17.10
2023-03-30T09:38:33.574Z,17.20
2023-03-30T09:43:44.222Z,17.20
2023-03-30T09:48:49.553Z,17.00
2023-03-30T09:53:59.926Z,16.80
2023-03-30T09:59:21.488Z,16.90
2023-03-30T10:04:25.132Z,17.50
2023-03-30T10:09:31.203Z,17.80
2023-03-30T10:14:36.596Z,17.70
2023-03-30T10:19:48.144Z,17.40
2023-03-30T10:24:56.982Z,17.20
2023-03-30T10:30:09.996Z,17.20
2023-03-30T10:35:20.484Z,17.20
2023-03-30T10:40:28.734Z,17.40
2023-03-30T10:45:38.485Z,17.50
2023-03-30T10:50:51.115Z,17.50
2023-03-30T10:56:03.075Z,17.70
2023-03-30T11:01:14.626Z,17.90
2023-03-30T11:06:23.298Z,18.00
2023-03-30T11:11:34.063Z,18.30
2023-03-30T11:16:47.657Z,18.90
2023-03-30T11:21:58.621Z,19.20
2023-03-30T11:27:11.319Z,19.40
2023-03-30T11:32:31.086Z,19.70
2023-03-30T11:37:39.894Z,20.10
2023-03-30T11:42:45.881Z,20.30
2023-03-30T11:48:07.888Z,19.60
2023-03-30T11:53:25.275Z,18.50
2023-03-30T11:58:35.931Z,17.50
2023-03-30T12:03:42.573Z,17.10
2023-03-30T12:09:00.970Z,17.30
2023-03-30T12:14:15.979Z,17.40
2023-03-30T12:19:25.816Z,17.20
2023-03-30T12:24:34.736Z,17.40
2023-03-30T12:34:58.764Z,17.80
2023-03-30T12:40:07.571Z,17.80
2023-03-30T12:45:28.708Z,17.80
2023-03-30T12:50:42.271Z,17.80
2023-03-30T12:55:50.074Z,17.90
2023-03-30T13:01:16.562Z,18.10
2023-03-30T13:06:27.737Z,18.10
2023-03-30T13:11:45.688Z,18.00
2023-03-30T13:17:14.957Z,17.90
2023-03-30T13:22:32.651Z,18.00
2023-03-30T13:27:37.876Z,17.80
2023-03-30T13:32:55.646Z,17.80
2023-03-30T13:38:28.381Z,17.70
2023-03-30T13:43:43.793Z,17.60
2023-03-30T13:49:01.548Z,17.60
2023-03-30T13:54:08.410Z,17.60
2023-03-30T13:59:15.288Z,17.60
2023-03-30T14:04:20.548Z,17.50
2023-03-30T14:09:25.635Z,17.50
2023-03-30T14:14:36.162Z,17.50
2023-03-30T14:19:51.253Z,17.20
2023-03-30T14:24:58.858Z,17.10
2023-03-30T14:30:04.652Z,17.00
2023-03-30T14:35:10.465Z,17.00
2023-03-30T14:40:17.482Z,17.10
2023-03-30T14:45:21.353Z,17.20
2023-03-30T14:50:27.929Z,17.20
2023-03-30T14:55:31.545Z,17.10
2023-03-30T15:00:35.991Z,17.00
2023-03-30T15:05:42.608Z,16.80
2023-03-30T15:10:52.135Z,16.80
2023-03-30T15:15:56.336Z,16.70
2023-03-30T15:21:01.780Z,16.70
2023-03-30T15:26:07.748Z,16.90
2023-03-30T15:31:13.636Z,17.00
2023-03-30T15:36:22.889Z,16.90
2023-03-30T15:41:45.695Z,16.80
2023-03-30T15:46:51.140Z,16.70
2023-03-30T15:51:59.022Z,16.70
2023-03-30T15:57:05.499Z,16.70
2023-03-30T16:02:16.516Z,16.70
2023-03-30T16:07:23.188Z,16.70
2023-03-30T16:12:29.378Z,16.60
2023-03-30T16:17:34.063Z,16.50
2023-03-30T16:22:39.033Z,16.50
2023-03-30T16:27:42.599Z,16.40
2023-03-30T16:32:46.732Z,16.30
2023-03-30T16:37:51.733Z,16.20
2023-03-30T16:42:55.252Z,16.10
2023-03-30T16:47:59.107Z,16.00
2023-03-30T16:53:04.022Z,15.90
2023-03-30T16:58:08.637Z,15.90
2023-03-30T17:03:12.167Z,15.90
2023-03-30T17:08:21.049Z,15.90
2023-03-30T17:13:25.009Z,15.80
2023-03-30T17:18:28.997Z,15.80
2023-03-30T17:23:34.207Z,15.70
2023-03-30T17:28:38.417Z,15.70
2023-03-30T17:33:42.366Z,15.70
2023-03-30T17:38:47.741Z,15.60
2023-03-30T17:43:51.606Z,15.30
2023-03-30T17:48:55.435Z,15.00
2023-03-30T17:54:01.673Z,14.00
2023-03-30T17:59:06.559Z,14.70
2023-03-30T18:04:10.330Z,14.70
2023-03-30T18:09:17.320Z,14.70
2023-03-30T18:14:20.817Z,14.60
2023-03-30T18:19:24.397Z,14.50
2023-03-30T18:24:29.307Z,14.50
2023-03-30T18:29:33.893Z,14.50
2023-03-30T18:34:37.221Z,14.40
2023-03-30T18:39:44.576Z,14.30
2023-03-30T18:44:48.232Z,14.30
2023-03-30T18:49:51.824Z,14.30
2023-03-30T18:54:56.800Z,14.20
2023-03-30T19:00:02.409Z,14.20
2023-03-30T19:05:08.253Z,14.20
2023-03-30T19:10:15.546Z,14.20
2023-03-30T19:15:22.439Z,14.10
2023-03-30T19:20:28.096Z,14.00
2023-03-30T19:25:33.485Z,14.00
2023-03-30T19:30:39.892Z,13.90
2023-03-30T19:35:45.889Z,13.90
2023-03-30T19:40:51.072Z,13.90
2023-03-30T19:45:54.903Z,13.90
2023-03-30T19:50:58.504Z,13.80
2023-03-30T19:56:03.481Z,13.80
2023-03-30T20:01:08.734Z,13.80
2023-03-30T20:06:17.796Z,13.80
2023-03-30T20:16:51.004Z,13.70
2023-03-30T20:21:55.989Z,13.80
2023-03-30T20:27:15.263Z,13.80
2023-03-30T20:32:21.934Z,13.80
2023-03-30T20:37:25.850Z,13.80
2023-03-30T20:42:32.341Z,13.90
2023-03-30T20:47:36.299Z,14.00
2023-03-30T20:52:40.074Z,14.00
2023-03-30T20:58:48.791Z,14.00
2023-03-30T21:03:57.608Z,14.90
2023-03-30T21:09:03.299Z,14.00
2023-03-30T21:14:09.477Z,13.90
2023-03-30T21:19:13.461Z,13.90
2023-03-30T21:24:18.571Z,13.90
2023-03-30T21:29:24.179Z,14.00
2023-03-30T21:34:27.891Z,13.90
2023-03-30T21:39:31.723Z,12.60
2023-03-30T21:51:00.136Z,14.00
2023-03-30T21:57:13.117Z,13.90
2023-03-30T22:02:21.757Z,12.80
2023-03-30T22:07:25.412Z,14.20
2023-03-30T22:12:31.422Z,14.30
2023-03-30T22:17:41.734Z,14.30
2023-03-30T22:22:45.846Z,14.40
2023-03-30T22:27:49.617Z,14.30
